createdAt,value
2023-03-12T00:00:54.075Z,99062.80
2023-03-12T00:06:11.292Z,99057.40
2023-03-12T00:11:17.976Z,99055.40
2023-03-12T00:16:22.177Z,99043.00
2023-03-12T00:21:24.729Z,99039.20
2023-03-12T00:26:26.918Z,99034.40
2023-03-12T00:31:32.350Z,99025.60
2023-03-12T00:36:34.359Z,99015.20
2023-03-12T00:41:36.160Z,99016.40
2023-03-12T00:46:38.037Z,99019.00
2023-03-12T00:51:39.895Z,99010.40
2023-03-12T00:56:41.649Z,99006.60
2023-03-12T01:01:43.847Z,99000.60
2023-03-12T01:06:45.715Z,99005.00
2023-03-12T01:11:47.385Z,98995.60
2023-03-12T01:16:50.865Z,98990.40
2023-03-12T01:21:54.213Z,98993.00
2023-03-12T01:26:56.201Z,98989.80
2023-03-12T01:31:57.981Z,98981.80
2023-03-12T01:36:59.649Z,98984.60
2023-03-12T01:42:01.835Z,98981.60
2023-03-12T01:47:03.600Z,98969.80
2023-03-12T01:52:12.083Z,98962.80
2023-03-12T01:57:51.899Z,98961.80
2023-03-12T02:03:00.113Z,98965.80
2023-03-12T02:08:01.809Z,98962.60
2023-03-12T02:13:03.519Z,98967.00
2023-03-12T02:18:09.132Z,98971.00
2023-03-12T02:23:21.265Z,98975.60
2023-03-12T02:28:29.102Z,98975.00
2023-03-12T02:33:30.741Z,98985.40
2023-03-12T02:38:41.833Z,98992.00
2023-03-12T02:44:12.449Z,98990.80
2023-03-12T02:49:16.572Z,98994.20
2023-03-12T02:54:22.593Z,98986.00
2023-03-12T02:59:28.266Z,98995.20
2023-03-12T03:04:34.437Z,98993.20
2023-03-12T03:09:36.236Z,98998.40
2023-03-12T03:14:38.000Z,99000.40
2023-03-12T03:19:39.707Z,99005.00
2023-03-12T03:24:41.751Z,99008.60
2023-03-12T03:29:46.095Z,99026.80
2023-03-12T03:34:47.888Z,99024.40
2023-03-12T03:39:49.729Z,99034.40
2023-03-12T03:44:51.326Z,99025.60
2023-03-12T03:49:52.979Z,99031.20
2023-03-12T03:54:56.597Z,99027.80
2023-03-12T04:00:03.516Z,99030.60
2023-03-12T04:05:06.611Z,99033.80
2023-03-12T04:10:09.697Z,99048.80
2023-03-12T04:15:11.471Z,99049.20
2023-03-12T04:20:14.015Z,99054.60
2023-03-12T04:25:16.045Z,99065.60
2023-03-12T04:30:17.847Z,99068.60
2023-03-12T04:35:20.529Z,99064.60
2023-03-12T04:40:22.396Z,99077.00
2023-03-12T04:45:24.177Z,99085.00
2023-03-12T04:50:25.949Z,99083.00
2023-03-12T04:55:27.628Z,99088.80
2023-03-12T05:00:29.784Z,99091.40
2023-03-12T05:05:31.690Z,99090.80
2023-03-12T05:10:34.190Z,99099.20
2023-03-12T05:15:37.089Z,99095.80
2023-03-12T05:20:39.886Z,99104.40
2023-03-12T05:25:41.550Z,99119.20
2023-03-12T05:30:43.242Z,99114.20
2023-03-12T05:35:44.916Z,99118.80
2023-03-12T05:40:55.501Z,99129.40
2023-03-12T05:46:04.808Z,99137.40
2023-03-12T05:51:06.916Z,99150.80
2023-03-12T05:56:14.262Z,99155.80
2023-03-12T06:01:23.659Z,99158.00
2023-03-12T06:06:25.757Z,99160.60
2023-03-12T06:11:27.529Z,99165.60
2023-03-12T06:16:29.654Z,99170.40
2023-03-12T06:21:35.723Z,99174.80
2023-03-12T06:26:38.073Z,99169.80
2023-03-12T06:31:41.613Z,99181.80
2023-03-12T06:36:44.184Z,99192.40
2023-03-12T06:41:45.878Z,99200.40
2023-03-12T06:46:48.209Z,99208.40
2023-03-12T06:51:50.661Z,99213.80
2023-03-12T06:56:52.724Z,99218.00
2023-03-12T07:01:54.959Z,99219.80
2023-03-12T07:06:56.899Z,99242.40
2023-03-12T07:11:58.667Z,99240.80
2023-03-12T07:17:02.008Z,99249.40
2023-03-12T07:22:04.077Z,99257.60
2023-03-12T07:27:06.051Z,99262.20
2023-03-12T07:32:08.078Z,99261.40
2023-03-12T07:37:09.917Z,99269.80
2023-03-12T07:42:12.416Z,99275.20
2023-03-12T07:47:23.617Z,99282.00
2023-03-12T07:52:26.633Z,99271.60
2023-03-12T07:57:28.728Z,99278.20
2023-03-12T08:02:30.693Z,99292.00
2023-03-12T08:07:34.698Z,99289.60
2023-03-12T08:12:37.330Z,99306.40
2023-03-12T08:17:40.397Z,99318.00
2023-03-12T08:22:42.185Z,99308.80
2023-03-12T08:27:44.030Z,99310.40
2023-03-12T08:32:46.550Z,99318.60
2023-03-12T08:37:48.431Z,99325.60
2023-03-12T08:42:50.279Z,99324.20
2023-03-12T08:47:52.262Z,99350.00
2023-03-12T08:52:54.025Z,99341.20
2023-03-12T08:57:57.134Z,99349.40
2023-03-12T09:02:59.144Z,99350.00
2023-03-12T09:08:00.991Z,99363.00
2023-03-12T09:13:04.338Z,99368.80
2023-03-12T09:18:06.188Z,99363.20
2023-03-12T09:23:07.972Z,99363.60
2023-03-12T09:28:09.933Z,99375.80
2023-03-12T09:33:14.609Z,99381.40
2023-03-12T09:38:16.346Z,99395.60
2023-03-12T09:43:37.070Z,99402.40
2023-03-12T09:48:40.171Z,99402.40
2023-03-12T09:53:48.753Z,99406.80
2023-03-12T09:58:54.167Z,99410.40
2023-03-12T10:04:14.329Z,99425.00
2023-03-12T10:09:34.196Z,99408.60
2023-03-12T10:15:25.924Z,99408.80
2023-03-12T10:20:51.161Z,99415.60
2023-03-12T10:26:17.921Z,99442.40
2023-03-12T10:31:30.725Z,99486.80
2023-03-12T10:36:41.019Z,99519.20
2023-03-12T10:41:46.596Z,99521.80
2023-03-12T10:47:33.223Z,99525.80
2023-03-12T10:52:35.063Z,99521.40
2023-03-12T10:57:42.108Z,99512.40
2023-03-12T11:02:48.245Z,99515.20
2023-03-12T11:07:50.929Z,99516.40
2023-03-12T11:13:02.244Z,99518.20
2023-03-12T11:18:31.739Z,99511.20
2023-03-12T11:23:34.335Z,99519.80
2023-03-12T11:28:45.940Z,99543.80
2023-03-12T11:33:48.176Z,99550.60
2023-03-12T11:39:06.476Z,99546.60
2023-03-12T11:44:38.676Z,99569.40
2023-03-12T11:50:08.753Z,99569.60
2023-03-12T11:55:25.997Z,99570.40
2023-03-12T12:00:51.234Z,99563.80
2023-03-12T12:06:43.306Z,99571.20
2023-03-12T12:12:06.144Z,99578.40
2023-03-12T12:17:23.694Z,99578.40
2023-03-12T12:22:42.564Z,99592.60
2023-03-12T12:27:59.907Z,99587.00
2023-03-12T12:33:35.790Z,99602.00
2023-03-12T12:38:46.869Z,99610.20
2023-03-12T12:43:57.662Z,99612.40
2023-03-12T12:49:23.409Z,99616.00
2023-03-12T12:54:44.433Z,99617.40
2023-03-12T13:00:10.677Z,99617.60
2023-03-12T13:05:36.421Z,99626.20
2023-03-12T13:10:48.775Z,99628.00
2023-03-12T13:16:42.223Z,99632.20
2023-03-12T13:22:16.978Z,99648.80
2023-03-12T13:27:45.808Z,99667.00
2023-03-12T13:32:47.387Z,99666.60
2023-03-12T13:37:52.213Z,99666.40
2023-03-12T13:43:09.435Z,99677.40
2023-03-12T13:48:17.665Z,99681.60
2023-03-12T13:53:46.783Z,99674.80
2023-03-12T13:59:02.171Z,99683.40
2023-03-12T14:04:11.825Z,99690.60
2023-03-12T14:09:40.457Z,99695.80
2023-03-12T14:15:06.996Z,99703.80
2023-03-12T14:20:22.610Z,99706.00
2023-03-12T14:25:43.165Z,99705.80
2023-03-12T14:31:12.383Z,99713.60
2023-03-12T14:36:27.511Z,99706.00
2023-03-12T14:41:35.066Z,99708.80
2023-03-12T14:46:36.867Z,99713.80
2023-03-12T14:51:39.565Z,99713.40
2023-03-12T14:56:44.176Z,99719.60
2023-03-12T15:01:47.912Z,99713.00
2023-03-12T15:06:58.535Z,99719.20
2023-03-12T15:12:28.883Z,99721.20
2023-03-12T15:17:31.893Z,99725.20
2023-03-12T15:22:35.711Z,99731.20
2023-03-12T15:27:37.486Z,99730.00
2023-03-12T15:32:39.597Z,99731.00
2023-03-12T15:37:52.812Z,99730.00
2023-03-12T15:43:01.339Z,99726.80
2023-03-12T15:48:24.770Z,99728.40
2023-03-12T15:53:31.715Z,99723.80
2023-03-12T15:58:38.621Z,99732.60
2023-03-12T16:03:44.908Z,99731.80
2023-03-12T16:08:58.250Z,99729.00
2023-03-12T16:14:17.134Z,99728.00
2023-03-12T16:19:22.907Z,99733.00
2023-03-12T16:24:24.778Z,99735.80
2023-03-12T16:29:37.716Z,99741.80
2023-03-12T16:34:40.105Z,99748.40
2023-03-12T16:39:45.961Z,99748.20
2023-03-12T16:44:48.268Z,99754.40
2023-03-12T16:49:50.546Z,99757.60
2023-03-12T16:54:52.721Z,99764.00
2023-03-12T16:59:54.814Z,99774.60
2023-03-12T17:04:56.885Z,99772.00
2023-03-12T17:09:58.884Z,99783.00
2023-03-12T17:15:04.560Z,99786.60
2023-03-12T17:20:09.694Z,99799.80
2023-03-12T17:25:28.323Z,99811.00
2023-03-12T17:30:31.461Z,99801.40
2023-03-12T17:35:34.807Z,99801.00
2023-03-12T17:40:42.555Z,99786.80
2023-03-12T17:45:44.467Z,99787.00
2023-03-12T17:50:46.349Z,99789.20
2023-03-12T17:55:48.448Z,99788.20
2023-03-12T18:00:50.312Z,99790.80
2023-03-12T18:05:52.287Z,99799.40
2023-03-12T18:10:54.886Z,99806.20
2023-03-12T18:15:59.991Z,99810.80
2023-03-12T18:21:01.812Z,99816.00
2023-03-12T18:26:05.038Z,99824.00
2023-03-12T18:31:06.751Z,99836.20
2023-03-12T18:36:09.297Z,99830.80
2023-03-12T18:41:13.418Z,99832.40
2023-03-12T18:46:15.434Z,99839.40
2023-03-12T18:51:17.693Z,99839.60
2023-03-12T18:56:19.506Z,99836.20
2023-03-12T19:01:21.456Z,99833.80
2023-03-12T19:06:23.375Z,99843.00
2023-03-12T19:11:26.021Z,99849.00
2023-03-12T19:16:28.995Z,99852.20
2023-03-12T19:21:31.008Z,99860.40
2023-03-12T19:26:33.205Z,99866.80
2023-03-12T19:31:35.074Z,99865.40
2023-03-12T19:36:37.059Z,99873.20
2023-03-12T19:41:40.372Z,99869.20
2023-03-12T19:46:42.847Z,99856.60
2023-03-12T19:51:44.726Z,99874.00
2023-03-12T19:56:46.495Z,99863.80
2023-03-12T20:01:48.410Z,99861.20
2023-03-12T20:06:50.464Z,99856.60
2023-03-12T20:11:52.351Z,99845.60
2023-03-12T20:16:54.206Z,99839.80
2023-03-12T20:21:56.799Z,99841.20
2023-03-12T20:26:58.572Z,99841.00
2023-03-12T20:32:00.575Z,99839.60
2023-03-12T20:37:02.534Z,99832.60
2023-03-12T20:42:04.619Z,99830.20
2023-03-12T20:47:06.501Z,99834.00
2023-03-12T20:52:08.377Z,99841.60
2023-03-12T20:57:10.151Z,99849.00
2023-03-12T21:02:14.480Z,99850.20
2023-03-12T21:07:16.475Z,99850.40
2023-03-12T21:12:18.469Z,99842.40
2023-03-12T21:17:20.324Z,99835.00
2023-03-12T21:22:22.103Z,99825.20
2023-03-12T21:27:24.544Z,99814.80
2023-03-12T21:32:27.077Z,99805.20
2023-03-12T21:37:28.860Z,99809.60
2023-03-12T21:42:33.093Z,99800.40
2023-03-12T21:47:39.184Z,99803.20
2023-03-12T21:52:47.087Z,99788.80
2023-03-12T21:57:48.764Z,99779.40
2023-03-12T22:02:53.295Z,99773.20
2023-03-12T22:07:55.278Z,99761.40
2023-03-12T22:12:56.955Z,99755.20
2023-03-12T22:17:58.722Z,99753.60
2023-03-12T22:23:00.942Z,99761.00
2023-03-12T22:28:02.785Z,99757.40
2023-03-12T22:33:04.594Z,99747.80
2023-03-12T22:38:06.235Z,99758.20
2023-03-12T22:43:08.636Z,99753.80
2023-03-12T22:48:10.409Z,99756.80
2023-03-12T22:53:12.170Z,99754.80
2023-03-12T22:58:14.658Z,99753.20
2023-03-12T23:03:16.336Z,99736.40
2023-03-12T23:08:18.131Z,99739.20
2023-03-12T23:13:20.909Z,99747.40
2023-03-12T23:18:22.592Z,99737.80
2023-03-12T23:23:24.356Z,99741.20
2023-03-12T23:28:29.256Z,99735.60
2023-03-12T23:33:33.512Z,99729.40
2023-03-12T23:38:37.669Z,99730.60
2023-03-12T23:43:40.160Z,99723.00
2023-03-12T23:48:43.478Z,99737.20
2023-03-12T23:53:48.336Z,99736.00
2023-03-12T23:58:51.042Z,99720.20
